Kelvington, Canada
Current Conditions -  °F | °C
As of 11:00 PM on Thursday 30 Oct 2014 (Local Time) from CYQV Reporting Station
Clear Clear  
Wind Chill: 14°   Ceiling: Unl
Heat Index: 23°   Visibility: 9mi
Dew Point: 19°   Wind: 8mph
Humidity: 86%   Direction: 150°SSE
Pressure: 30.5"   Gusts: NA
Location:  52.17°N, 103.52°W
Report Text: CYQV 310500Z AUTO 15007KT 9SM CLR M05/M07 A3050 RMK PRESFR SLP361
Loading
Personal Weather Stations






























Interactive Weather Map
Tropical Storm Tracking
New forecast layout! Learn more

10-Day Weather Forecast

Advertisements
Track Severe Weather on mobile